createdAt,value
2018-11-22T00:00:01.431Z,1023.04
2018-11-22T00:15:01.414Z,1022.91
2018-11-22T00:31:01.254Z,1022.91
2018-11-22T00:46:01.278Z,1022.86
2018-11-22T01:01:01.291Z,1022.98
2018-11-22T01:16:01.331Z,1023.03
2018-11-22T01:21:01.595Z,1023.03
2018-11-22T01:37:01.527Z,1022.98
2018-11-22T01:47:02.571Z,1023.0999999999999
2018-11-22T02:02:01.542Z,1023.03
2018-11-22T02:17:01.554Z,1022.95
2018-11-22T02:32:01.533Z,1022.92
2018-11-22T02:47:01.543Z,1022.98
2018-11-22T03:02:01.565Z,1023.0
2018-11-22T03:17:01.558Z,1022.89
2018-11-22T03:27:01.546Z,1022.94
2018-11-22T03:42:01.535Z,1022.87
2018-11-22T03:58:01.555Z,1023.01
2018-11-22T04:03:01.524Z,1023.01
2018-11-22T04:18:02.463Z,1022.94
2018-11-22T04:23:01.527Z,1022.81
2018-11-22T04:38:01.532Z,1022.82
2018-11-22T04:44:01.516Z,1022.77
2018-11-22T04:59:01.559Z,1022.71
2018-11-22T05:14:01.552Z,1022.74
2018-11-22T05:19:01.744Z,1022.74
2018-11-22T05:29:01.547Z,1022.79
2018-11-22T05:45:01.540Z,1022.73
2018-11-22T06:00:01.601Z,1022.65
2018-11-22T06:15:01.386Z,1022.76
2018-11-22T06:20:01.408Z,1022.76
2018-11-22T06:30:01.411Z,1022.8
2018-11-22T06:35:01.413Z,1022.89
2018-11-22T06:51:01.389Z,1022.75
2018-11-22T07:06:01.403Z,1022.83
2018-11-22T07:16:01.422Z,1022.82
2018-11-22T07:31:01.821Z,1022.86
2018-11-22T07:41:01.381Z,1022.99
2018-11-22T07:46:01.393Z,1022.99
2018-11-22T08:01:01.415Z,1022.98
2018-11-22T08:06:01.402Z,1022.98
2018-11-22T08:16:01.395Z,1023.02
2018-11-22T08:31:01.410Z,1023.0
2018-11-22T08:46:01.394Z,1023.04
2018-11-22T08:56:01.389Z,1023.0799999999999
2018-11-22T09:01:01.407Z,1023.1199999999999
2018-11-22T09:16:01.368Z,1023.1099999999999
2018-11-22T09:31:01.405Z,1023.1700000000001
2018-11-22T09:36:01.458Z,1023.1700000000001
2018-11-22T09:51:01.526Z,1023.23
2018-11-22T10:06:01.408Z,1023.25
2018-11-22T10:21:01.378Z,1023.31
2018-11-22T10:36:01.404Z,1023.1500000000001
2018-11-22T10:51:01.397Z,1023.0799999999999
2018-11-22T11:06:01.413Z,1023.03
2018-11-22T11:21:01.390Z,1022.83
2018-11-22T11:36:01.411Z,1022.77
2018-11-22T11:51:01.419Z,1022.6
2018-11-22T12:01:06.406Z,1022.48
2018-11-22T12:16:06.401Z,1022.46
2018-11-22T12:22:01.399Z,1022.44
2018-11-22T12:37:01.427Z,1022.3
2018-11-22T12:52:01.411Z,1022.14
2018-11-22T13:07:01.475Z,1022.05
2018-11-22T13:12:01.404Z,1021.97
2018-11-22T13:27:01.403Z,1021.96
2018-11-22T13:42:01.405Z,1021.87
2018-11-22T13:57:01.413Z,1021.81
2018-11-22T14:07:01.416Z,1021.71
2018-11-22T14:22:01.405Z,1021.76
2018-11-22T14:37:01.407Z,1021.83
2018-11-22T14:53:01.375Z,1021.77
2018-11-22T15:08:01.406Z,1021.68
2018-11-22T15:23:06.409Z,1021.68
2018-11-22T15:38:01.255Z,1021.71
2018-11-22T15:53:01.480Z,1021.81
2018-11-22T16:08:01.409Z,1021.79
2018-11-22T16:23:01.399Z,1021.84
2018-11-22T16:28:01.272Z,1021.84
2018-11-22T16:43:01.484Z,1021.82
2018-11-22T16:58:01.466Z,1021.93
2018-11-22T17:13:01.496Z,1021.84
2018-11-22T17:28:01.507Z,1021.86
2018-11-22T17:33:01.491Z,1021.89
2018-11-22T17:48:01.495Z,1021.88
2018-11-22T17:58:01.499Z,1021.93
2018-11-22T18:03:02.532Z,1021.96
2018-11-22T18:13:01.488Z,1022.02
2018-11-22T18:29:01.391Z,1022.06
2018-11-22T18:44:01.540Z,1022.0
2018-11-22T18:59:01.481Z,1022.06
2018-11-22T19:15:01.496Z,1022.05
2018-11-22T19:25:01.453Z,1021.98
2018-11-22T19:30:01.420Z,1021.98
2018-11-22T19:35:01.493Z,1022.04
2018-11-22T19:45:01.526Z,1022.05
2018-11-22T20:00:01.515Z,1022.1
2018-11-22T20:05:01.455Z,1022.15
2018-11-22T20:10:01.460Z,1022.15
2018-11-22T20:15:01.473Z,1022.12
2018-11-22T20:30:01.483Z,1022.21
2018-11-22T20:45:01.488Z,1022.08
2018-11-22T20:55:01.605Z,1022.06
2018-11-22T21:00:01.391Z,1022.06
2018-11-22T21:15:01.497Z,1022.14
2018-11-22T21:30:01.477Z,1022.09
2018-11-22T21:35:01.532Z,1022.05
2018-11-22T21:45:01.423Z,1022.04
2018-11-22T22:00:01.567Z,1021.98
2018-11-22T22:05:01.410Z,1021.87
2018-11-22T22:15:01.484Z,1022.0
2018-11-22T22:30:01.479Z,1021.93
2018-11-22T22:45:01.484Z,1021.91
2018-11-22T22:56:01.462Z,1021.81
2018-11-22T23:11:01.527Z,1021.88
2018-11-22T23:26:01.477Z,1021.89
2018-11-22T23:42:01.528Z,1021.89
2018-11-22T23:47:01.403Z,1021.89
